HECA METAR and TAF | Updated Today

HECA METAR

Cairo International Airport

Observation time: 32 min. ago

HECA 061900Z 35009KT CAVOK 24/14 Q1016 NOSIG

Need help? Read our tutorial on how to read METARs or read the parsed version below.

Cairo International Airport (HECA) METAR

  • Weather conditions on Thu, 06 Oct 2022 19:00:00 +0000 (32 min. ago):
  • Present conditions: Dry
  • Clouds: Clear skies
  • Visibility: Greater than 10 km
  • Wind: 350 degrees at 9 knots
  • Temperature: 24 celsius
  • Dew point: 14 celsius
  • Pressure: 1016 millibars
  • Remarks: None


Useful to know...

HECA TAF

Cairo International Airport

TAF HECA 061700Z 0618/0724 35008KT CAVOK
Observation time: 2:32 hr. ago
Need help? Read our tutorial on how to read TAFs or read the parsed version below.

Parsed version of TAF for Cairo International Airport (HECA)

  • From 06 October at 18:00 UTC, to day 07 of the month at 24:00 UTC
  • Visibility: Greater than 10 km
  • Wind: 350 degrees at 8

Airports near HECA